createdAt,value
2019-06-13T00:00:20.571Z,933.12
2019-06-13T00:01:20.626Z,933.10
2019-06-13T00:02:20.669Z,933.11
2019-06-13T00:03:20.726Z,933.09
2019-06-13T00:04:20.819Z,933.11
2019-06-13T00:05:20.798Z,933.13
2019-06-13T00:06:21.026Z,933.09
2019-06-13T00:07:20.912Z,933.10
2019-06-13T00:08:20.934Z,933.15
2019-06-13T00:09:20.988Z,933.09
2019-06-13T00:10:21.046Z,933.13
2019-06-13T00:11:21.074Z,933.16
2019-06-13T00:12:21.124Z,933.16
2019-06-13T00:13:21.144Z,933.15
2019-06-13T00:14:21.208Z,933.14
2019-06-13T00:15:21.251Z,933.16
2019-06-13T00:16:21.316Z,933.14
2019-06-13T00:17:21.363Z,933.12
2019-06-13T00:18:21.396Z,933.13
2019-06-13T00:19:21.476Z,933.15
2019-06-13T00:20:21.502Z,933.13
2019-06-13T00:21:21.520Z,933.11
2019-06-13T00:22:21.571Z,933.14
2019-06-13T00:23:21.613Z,933.18
2019-06-13T00:24:21.637Z,933.15
2019-06-13T00:25:21.678Z,933.18
2019-06-13T00:26:21.743Z,933.19
2019-06-13T00:27:21.803Z,933.21
2019-06-13T00:28:21.817Z,933.20
2019-06-13T00:29:21.891Z,933.18
2019-06-13T00:30:21.953Z,933.22
2019-06-13T00:31:21.984Z,933.25
2019-06-13T00:32:22.004Z,933.24
2019-06-13T00:33:22.056Z,933.26
2019-06-13T00:34:22.111Z,933.24
2019-06-13T00:35:22.174Z,933.24
2019-06-13T00:36:22.175Z,933.27
2019-06-13T00:37:22.250Z,933.26
2019-06-13T00:38:22.297Z,933.26
2019-06-13T00:39:22.312Z,933.24
2019-06-13T00:40:22.384Z,933.26
2019-06-13T00:41:22.403Z,933.26
2019-06-13T00:42:22.458Z,933.27
2019-06-13T00:43:22.511Z,933.27
2019-06-13T00:44:22.545Z,933.29
2019-06-13T00:45:22.598Z,933.31
2019-06-13T00:46:22.674Z,933.33
2019-06-13T00:47:22.680Z,933.35
2019-06-13T00:48:22.743Z,933.36
2019-06-13T00:49:22.773Z,933.41
2019-06-13T00:50:22.817Z,933.43
2019-06-13T00:51:22.849Z,933.48
2019-06-13T00:52:22.931Z,933.53
2019-06-13T00:53:22.938Z,933.56
2019-06-13T00:54:22.968Z,933.58
2019-06-13T00:55:23.034Z,933.57
2019-06-13T00:56:23.086Z,933.55
2019-06-13T00:57:23.155Z,933.60
2019-06-13T00:58:23.183Z,933.57
2019-06-13T00:59:23.223Z,933.60
2019-06-13T01:00:23.274Z,933.60
2019-06-13T01:01:23.305Z,933.53
2019-06-13T01:02:23.350Z,933.58
2019-06-13T01:03:23.384Z,933.57
2019-06-13T01:04:23.437Z,933.53
2019-06-13T01:05:23.504Z,933.53
2019-06-13T01:06:25.992Z,933.50
2019-06-13T01:07:23.627Z,933.51
2019-06-13T01:08:23.626Z,933.51
2019-06-13T01:09:23.657Z,933.49
2019-06-13T01:10:23.697Z,933.57
2019-06-13T01:11:23.744Z,933.57
2019-06-13T01:12:23.792Z,933.50
2019-06-13T01:13:23.903Z,933.51
2019-06-13T01:14:23.872Z,933.45
2019-06-13T01:15:23.918Z,933.44
2019-06-13T01:16:24.015Z,933.48
2019-06-13T01:17:24.024Z,933.47
2019-06-13T01:18:24.061Z,933.47
2019-06-13T01:19:24.116Z,933.49
2019-06-13T01:20:24.178Z,933.48
2019-06-13T01:21:24.241Z,933.50
2019-06-13T01:22:24.247Z,933.48
2019-06-13T01:23:24.275Z,933.44
2019-06-13T01:24:24.331Z,933.49
2019-06-13T01:25:24.427Z,933.50
2019-06-13T01:26:24.428Z,933.50
2019-06-13T01:27:24.463Z,933.47
2019-06-13T01:28:24.487Z,933.48
2019-06-13T01:29:24.550Z,933.45
2019-06-13T01:30:24.642Z,933.43
2019-06-13T01:31:24.617Z,933.42
2019-06-13T01:32:24.724Z,933.45
2019-06-13T01:33:24.735Z,933.42
2019-06-13T01:34:24.786Z,933.45
2019-06-13T01:35:24.816Z,933.45
2019-06-13T01:36:39.350Z,933.47
2019-06-13T01:37:24.923Z,933.46
2019-06-13T01:38:24.989Z,933.41
2019-06-13T01:39:25.064Z,933.37
2019-06-13T01:40:25.099Z,933.37
2019-06-13T01:41:25.263Z,933.39
2019-06-13T01:42:25.180Z,933.39
2019-06-13T01:43:25.162Z,933.39
2019-06-13T01:44:25.221Z,933.41
2019-06-13T01:45:25.291Z,933.41
2019-06-13T01:46:25.287Z,933.40
2019-06-13T01:47:25.350Z,933.42
2019-06-13T01:48:32.480Z,933.40
2019-06-13T01:49:25.479Z,933.39
2019-06-13T01:50:25.479Z,933.38
2019-06-13T01:51:25.524Z,933.39
2019-06-13T01:52:25.575Z,933.38
2019-06-13T01:53:25.604Z,933.36
2019-06-13T01:54:25.676Z,933.36
2019-06-13T01:55:25.705Z,933.39
2019-06-13T01:56:25.745Z,933.35
2019-06-13T01:57:25.790Z,933.34
2019-06-13T01:58:25.863Z,933.36
2019-06-13T01:59:25.847Z,933.36
2019-06-13T02:00:34.762Z,933.35
2019-06-13T02:01:25.950Z,933.36
2019-06-13T02:02:26.011Z,933.36
2019-06-13T02:03:26.056Z,933.34
2019-06-13T02:04:26.111Z,933.36
2019-06-13T02:05:28.643Z,933.39
2019-06-13T02:06:26.180Z,933.40
2019-06-13T02:07:28.740Z,933.36
2019-06-13T02:08:28.887Z,933.38
2019-06-13T02:09:26.324Z,933.39
2019-06-13T02:10:28.819Z,933.41
2019-06-13T02:11:26.416Z,933.35
2019-06-13T02:12:29.151Z,933.35
2019-06-13T02:13:26.518Z,933.36
2019-06-13T02:14:29.044Z,933.36
2019-06-13T02:15:29.562Z,933.35
2019-06-13T02:16:26.631Z,933.33
2019-06-13T02:17:26.694Z,933.33
2019-06-13T02:18:28.455Z,933.31
2019-06-13T02:19:26.769Z,933.29
2019-06-13T02:20:29.438Z,933.29
2019-06-13T02:21:28.920Z,933.28
2019-06-13T02:22:29.472Z,933.25
2019-06-13T02:23:29.175Z,933.28
2019-06-13T02:24:29.389Z,933.25
2019-06-13T02:25:29.406Z,933.23
2019-06-13T02:26:28.665Z,933.22
2019-06-13T02:27:29.467Z,933.23
2019-06-13T02:28:29.846Z,933.18
2019-06-13T02:29:29.376Z,933.16
2019-06-13T02:30:30.833Z,933.13
2019-06-13T02:31:27.279Z,933.14
2019-06-13T02:32:31.513Z,933.16
2019-06-13T02:33:30.844Z,933.15
2019-06-13T02:34:30.241Z,933.12
2019-06-13T02:35:30.924Z,933.13
2019-06-13T02:36:30.617Z,933.13
2019-06-13T02:37:34.268Z,933.13
2019-06-13T02:38:30.307Z,933.12
2019-06-13T02:39:30.594Z,933.11
2019-06-13T02:40:30.170Z,933.10
2019-06-13T02:41:30.656Z,933.10
2019-06-13T02:42:30.011Z,933.11
2019-06-13T02:43:30.614Z,933.09
2019-06-13T02:44:30.370Z,933.11
2019-06-13T07:35:33.183Z,932.99
2019-06-13T07:37:09.815Z,933.01
2019-06-13T07:38:09.442Z,932.99
2019-06-13T07:39:09.997Z,933.03
2019-06-13T07:40:18.643Z,933.02
2019-06-13T07:41:09.969Z,933.01
2019-06-13T07:42:09.883Z,933.01
2019-06-13T07:43:09.873Z,933.00
2019-06-13T07:44:14.061Z,933.01
2019-06-13T07:45:10.100Z,933.01
2019-06-13T07:46:10.011Z,932.99
2019-06-13T07:47:10.320Z,932.97
2019-06-13T07:48:12.470Z,932.99
2019-06-13T07:49:09.736Z,932.98
2019-06-13T07:50:10.251Z,933.02
2019-06-13T07:51:10.193Z,933.01
2019-06-13T07:52:10.019Z,933.05
2019-06-13T07:53:09.882Z,933.02
2019-06-13T07:54:10.173Z,933.06
2019-06-13T07:55:11.634Z,933.10
2019-06-13T07:56:09.949Z,933.11
2019-06-13T07:57:10.014Z,933.12
2019-06-13T07:58:10.062Z,933.19
2019-06-13T07:59:10.115Z,933.20
2019-06-13T08:00:10.151Z,933.21
2019-06-13T08:01:11.849Z,933.22
2019-06-13T08:02:10.634Z,933.23
2019-06-13T08:03:10.367Z,933.22
2019-06-13T08:04:11.094Z,933.23
2019-06-13T08:05:10.425Z,933.26
2019-06-13T08:06:10.389Z,933.27
2019-06-13T08:07:10.420Z,933.29
2019-06-13T08:08:10.464Z,933.33
2019-06-13T08:09:10.518Z,933.30
2019-06-13T08:10:12.425Z,933.33
2019-06-13T08:11:10.614Z,933.30
2019-06-13T08:12:10.651Z,933.31
2019-06-13T08:13:10.812Z,933.34
2019-06-13T08:14:10.721Z,933.34
2019-06-13T08:15:10.812Z,933.37
2019-06-13T08:16:25.893Z,933.38
2019-06-13T08:17:11.059Z,933.40
2019-06-13T08:18:10.903Z,933.41
2019-06-13T08:19:10.946Z,933.38
2019-06-13T08:20:10.982Z,933.40
2019-06-13T08:21:11.011Z,933.39
2019-06-13T08:22:11.446Z,933.43
2019-06-13T08:23:18.453Z,933.39
2019-06-13T08:24:11.146Z,933.39
2019-06-13T08:25:11.186Z,933.36
2019-06-13T08:26:13.163Z,933.40
2019-06-13T08:27:11.322Z,933.42
2019-06-13T08:28:11.329Z,933.43
2019-06-13T08:29:11.357Z,933.42
2019-06-13T08:30:11.415Z,933.44
2019-06-13T08:31:11.504Z,933.42
2019-06-13T08:32:11.479Z,933.39
2019-06-13T08:33:11.556Z,933.39
2019-06-13T08:34:11.566Z,933.40
2019-06-13T08:35:11.606Z,933.37
2019-06-13T08:36:11.653Z,933.39
2019-06-13T08:37:12.589Z,933.38
2019-06-13T08:38:11.733Z,933.35
2019-06-13T08:39:11.788Z,933.40
2019-06-13T08:40:11.808Z,933.39
2019-06-13T08:41:20.193Z,933.39
2019-06-13T08:42:11.900Z,933.42
2019-06-13T08:43:15.490Z,933.45
2019-06-13T08:44:12.010Z,933.47
2019-06-13T08:45:12.020Z,933.48
2019-06-13T08:46:12.074Z,933.50
2019-06-13T08:47:12.118Z,933.48
2019-06-13T08:48:12.169Z,933.49
2019-06-13T08:49:16.361Z,933.49
2019-06-13T08:50:12.264Z,933.52
2019-06-13T08:51:12.284Z,933.50
2019-06-13T08:52:12.337Z,933.53
2019-06-13T08:53:12.386Z,933.54
2019-06-13T08:54:12.425Z,933.49
2019-06-13T08:55:12.448Z,933.51
2019-06-13T08:56:12.492Z,933.54
2019-06-13T08:57:12.562Z,933.53
2019-06-13T08:58:12.592Z,933.55
2019-06-13T08:59:12.642Z,933.56
2019-06-13T09:00:12.670Z,933.58
2019-06-13T09:01:12.693Z,933.58
2019-06-13T09:02:12.735Z,933.60
2019-06-13T09:03:12.812Z,933.61
2019-06-13T09:04:12.825Z,933.63
2019-06-13T09:05:12.874Z,933.65
2019-06-13T09:06:15.169Z,933.66
2019-06-13T09:07:12.952Z,933.62
2019-06-13T09:08:15.858Z,933.63
2019-06-13T09:09:13.058Z,933.67
2019-06-13T09:10:13.090Z,933.64
2019-06-13T09:11:27.184Z,933.64
2019-06-13T09:12:13.159Z,933.64
2019-06-13T09:13:13.189Z,933.61
2019-06-13T09:14:13.272Z,933.61
2019-06-13T09:15:13.289Z,933.60
2019-06-13T09:16:13.337Z,933.59
2019-06-13T09:17:13.397Z,933.63
2019-06-13T09:18:13.433Z,933.63
2019-06-13T09:19:13.454Z,933.67
2019-06-13T09:20:13.541Z,933.68
2019-06-13T09:21:13.557Z,933.69
2019-06-13T09:22:13.581Z,933.74
2019-06-13T09:23:13.643Z,933.75
2019-06-13T09:24:13.665Z,933.75
2019-06-13T09:25:13.712Z,933.74
2019-06-13T09:26:13.769Z,933.72
2019-06-13T09:27:13.794Z,933.75
2019-06-13T09:28:13.842Z,933.77
2019-06-13T09:29:13.899Z,933.77
2019-06-13T09:30:13.991Z,933.75
2019-06-13T09:31:13.972Z,933.74
2019-06-13T09:32:14.012Z,933.71
2019-06-13T09:33:19.969Z,933.78
2019-06-13T09:34:14.991Z,933.81
2019-06-13T09:35:14.130Z,933.80
2019-06-13T09:36:14.160Z,933.83
2019-06-13T09:37:14.218Z,933.83
2019-06-13T09:38:14.255Z,933.83
2019-06-13T09:39:22.286Z,933.82
2019-06-13T09:40:14.349Z,933.87
2019-06-13T09:41:14.397Z,933.88
2019-06-13T09:42:22.335Z,933.88
2019-06-13T09:43:14.479Z,933.87
2019-06-13T09:44:14.505Z,933.95
2019-06-13T09:45:14.541Z,933.91
2019-06-13T09:46:14.592Z,933.96
2019-06-13T09:47:14.626Z,933.93
2019-06-13T09:48:14.677Z,933.94
2019-06-13T09:49:14.771Z,933.93
2019-06-13T09:50:14.764Z,933.94
2019-06-13T09:51:14.802Z,933.96
2019-06-13T09:52:14.875Z,933.98
2019-06-13T09:53:14.883Z,933.97
2019-06-13T09:54:14.928Z,933.96
2019-06-13T09:55:16.219Z,933.98
2019-06-13T09:56:15.008Z,933.96
2019-06-13T09:57:15.070Z,933.95
2019-06-13T09:58:15.090Z,933.92
2019-06-13T09:59:15.142Z,933.99
2019-06-13T10:00:23.674Z,933.98
2019-06-13T10:01:15.217Z,934.03
2019-06-13T10:02:15.248Z,934.00
2019-06-13T10:03:15.299Z,933.99
2019-06-13T10:04:15.351Z,934.03
2019-06-13T10:05:15.388Z,934.03
2019-06-13T10:06:20.661Z,934.03
2019-06-13T10:07:15.492Z,934.00
2019-06-13T10:08:15.524Z,933.97
2019-06-13T10:09:15.604Z,934.00
2019-06-13T10:10:15.623Z,933.99
2019-06-13T10:11:15.639Z,934.02
2019-06-13T10:12:34.144Z,934.04
2019-06-13T10:13:15.720Z,934.06
2019-06-13T10:14:15.756Z,934.10
2019-06-13T10:15:15.839Z,934.08
2019-06-13T10:16:15.850Z,934.09
2019-06-13T10:17:15.904Z,934.09
2019-06-13T10:18:16.710Z,934.07
2019-06-13T10:19:15.990Z,934.04
2019-06-13T10:20:27.707Z,934.02
2019-06-13T10:21:16.092Z,934.08
2019-06-13T10:22:17.382Z,934.07
2019-06-13T10:23:16.141Z,934.07
2019-06-13T10:24:42.009Z,934.08
2019-06-13T10:25:16.255Z,934.10
2019-06-13T10:26:23.071Z,934.08
2019-06-13T10:27:18.793Z,934.14
2019-06-13T10:28:16.372Z,934.15
2019-06-13T10:29:16.744Z,934.13
2019-06-13T10:30:16.498Z,934.15
2019-06-13T10:31:20.100Z,934.11
2019-06-13T10:32:16.542Z,934.07
2019-06-13T10:33:16.556Z,934.10
2019-06-13T10:34:19.861Z,934.14
2019-06-13T10:35:16.661Z,934.09
2019-06-13T10:36:16.685Z,934.08
2019-06-13T10:37:19.340Z,934.12
2019-06-13T10:38:37.282Z,934.15
2019-06-13T10:39:16.838Z,934.15
2019-06-13T10:40:20.095Z,934.18
2019-06-13T10:41:20.476Z,934.15
2019-06-13T10:42:19.185Z,934.17
2019-06-13T10:43:21.106Z,934.16
2019-06-13T10:44:18.946Z,934.16
2019-06-13T10:45:17.070Z,934.21
2019-06-13T10:46:17.125Z,934.20
2019-06-13T10:47:20.220Z,934.18
2019-06-13T10:48:20.183Z,934.19
2019-06-13T10:49:19.919Z,934.16
2019-06-13T10:50:19.825Z,934.21
2019-06-13T10:51:21.747Z,934.27
2019-06-13T10:52:19.646Z,934.27
2019-06-13T10:53:25.027Z,934.34
2019-06-13T10:54:19.692Z,934.32
2019-06-13T10:55:20.135Z,934.34
2019-06-13T10:56:19.920Z,934.36
2019-06-13T10:57:27.580Z,934.34
2019-06-13T10:58:20.105Z,934.38
2019-06-13T10:59:17.675Z,934.42
2019-06-13T11:00:20.083Z,934.43
2019-06-13T11:01:20.439Z,934.49
2019-06-13T11:02:19.806Z,934.52
2019-06-13T11:03:17.866Z,934.56
2019-06-13T11:04:22.680Z,934.60
2019-06-13T11:05:19.791Z,934.62
2019-06-13T11:06:25.550Z,934.64
2019-06-13T11:07:19.565Z,934.65
2019-06-13T11:08:20.308Z,934.63
2019-06-13T11:09:18.925Z,934.66
2019-06-13T11:10:20.349Z,934.68
2019-06-13T11:11:19.908Z,934.65
2019-06-13T11:12:19.747Z,934.63
2019-06-13T11:13:19.397Z,934.72
2019-06-13T11:14:19.161Z,934.68
2019-06-13T11:15:18.402Z,934.68
2019-06-13T11:16:21.484Z,934.68
2019-06-13T11:17:38.737Z,934.70
2019-06-13T11:18:18.521Z,934.74
2019-06-13T11:19:20.699Z,934.73
2019-06-13T11:20:20.189Z,934.81
2019-06-13T11:21:20.578Z,934.82
2019-06-13T11:22:21.170Z,934.82
2019-06-13T11:23:20.246Z,934.78
2019-06-13T11:24:20.321Z,934.82
2019-06-13T11:25:19.389Z,934.82
2019-06-13T11:26:18.943Z,934.85
2019-06-13T11:27:18.996Z,934.85
2019-06-13T11:28:19.754Z,934.86
2019-06-13T11:29:19.603Z,934.89
2019-06-13T11:30:20.445Z,934.96
2019-06-13T11:31:19.208Z,934.97
2019-06-13T11:32:19.499Z,934.96
2019-06-13T11:33:19.268Z,934.96
2019-06-13T11:34:19.880Z,934.96
2019-06-13T11:35:20.638Z,934.96
2019-06-13T11:36:19.804Z,934.97
2019-06-13T11:37:20.070Z,935.02
2019-06-13T11:38:19.832Z,934.99
2019-06-13T11:39:20.061Z,934.99
2019-06-13T11:40:29.691Z,935.02
2019-06-13T11:41:19.889Z,935.00
2019-06-13T11:42:20.436Z,935.04
2019-06-13T11:43:34.285Z,935.04
2019-06-13T11:44:20.688Z,935.04
2019-06-13T11:45:21.117Z,935.06
2019-06-13T11:46:20.621Z,935.06
2019-06-13T11:47:20.173Z,935.07
2019-06-13T11:48:20.081Z,935.04
2019-06-13T11:49:20.762Z,935.06
2019-06-13T11:50:20.450Z,935.08
2019-06-13T11:51:21.273Z,935.11
2019-06-13T11:52:20.244Z,935.12
2019-06-13T11:53:21.247Z,935.14
2019-06-13T11:54:20.365Z,935.18
2019-06-13T11:55:20.396Z,935.15
2019-06-13T11:56:20.943Z,935.17
2019-06-13T11:57:20.507Z,935.20
2019-06-13T11:58:25.330Z,935.20
2019-06-13T11:59:20.606Z,935.25
2019-06-13T12:00:31.451Z,935.17
2019-06-13T12:01:20.705Z,935.24
2019-06-13T12:02:20.805Z,935.27
2019-06-13T12:03:21.417Z,935.25
2019-06-13T12:04:20.848Z,935.32
2019-06-13T12:05:20.927Z,935.25
2019-06-13T12:06:22.238Z,935.24
2019-06-13T12:07:21.021Z,935.24
2019-06-13T12:08:21.145Z,935.22
2019-06-13T12:09:21.122Z,935.20
2019-06-13T12:10:21.430Z,935.25
2019-06-13T12:11:21.261Z,935.22
2019-06-13T12:12:25.145Z,935.27
2019-06-13T12:13:21.310Z,935.26
2019-06-13T12:14:21.897Z,935.20
2019-06-13T12:15:21.450Z,935.17
2019-06-13T12:16:21.498Z,935.18
2019-06-13T12:17:24.514Z,935.20
2019-06-13T12:18:21.559Z,935.22
2019-06-13T12:19:21.657Z,935.21
2019-06-13T12:20:21.680Z,935.22
2019-06-13T12:21:21.728Z,935.18
2019-06-13T12:22:21.823Z,935.17
2019-06-13T12:23:21.833Z,935.17
2019-06-13T12:24:21.869Z,935.22
2019-06-13T12:25:21.957Z,935.25
2019-06-13T12:26:21.988Z,935.23
2019-06-13T12:27:22.183Z,935.24
2019-06-13T12:28:22.113Z,935.25
2019-06-13T12:29:22.174Z,935.27
2019-06-13T12:30:22.213Z,935.27
2019-06-13T12:31:22.259Z,935.31
2019-06-13T12:32:22.320Z,935.25
2019-06-13T12:33:22.390Z,935.22
2019-06-13T12:34:22.464Z,935.22
2019-06-13T12:35:22.455Z,935.20
2019-06-13T12:36:22.507Z,935.20
2019-06-13T12:37:22.561Z,935.23
2019-06-13T12:38:22.640Z,935.25
2019-06-13T12:39:22.690Z,935.25
2019-06-13T12:40:22.750Z,935.26
2019-06-13T12:41:22.789Z,935.27
2019-06-13T12:42:22.868Z,935.26
2019-06-13T12:43:22.921Z,935.26
2019-06-13T12:44:29.550Z,935.27
2019-06-13T12:45:22.984Z,935.26
2019-06-13T12:46:23.057Z,935.23
2019-06-13T12:47:23.111Z,935.24
2019-06-13T12:48:23.207Z,935.25
2019-06-13T12:49:23.226Z,935.22
2019-06-13T12:50:23.246Z,935.26
2019-06-13T12:51:24.535Z,935.25
2019-06-13T12:52:23.361Z,935.26
2019-06-13T12:53:23.411Z,935.28
2019-06-13T12:54:23.496Z,935.26
2019-06-13T12:55:23.525Z,935.21
2019-06-13T12:56:23.586Z,935.27
2019-06-13T12:57:23.626Z,935.26
2019-06-13T12:58:23.681Z,935.30
2019-06-13T12:59:23.740Z,935.27
2019-06-13T13:00:23.875Z,935.28
2019-06-13T13:01:23.843Z,935.25
2019-06-13T13:02:23.882Z,935.33
2019-06-13T13:03:23.974Z,935.27
2019-06-13T13:04:24.007Z,935.27
2019-06-13T13:05:24.074Z,935.26
2019-06-13T13:06:24.124Z,935.24
2019-06-13T13:07:24.158Z,935.32
2019-06-13T13:08:24.203Z,935.25
2019-06-13T13:09:24.276Z,935.29
2019-06-13T13:10:24.355Z,935.28
2019-06-13T13:11:24.377Z,935.28
2019-06-13T13:12:24.452Z,935.26
2019-06-13T13:13:24.498Z,935.26
2019-06-13T13:14:38.840Z,935.24
2019-06-13T13:15:24.607Z,935.21
2019-06-13T13:16:24.644Z,935.25
2019-06-13T13:17:27.034Z,935.20
2019-06-13T13:18:24.773Z,935.18
2019-06-13T13:19:24.823Z,935.16
2019-06-13T13:20:24.975Z,935.14
2019-06-13T13:21:24.951Z,935.18
2019-06-13T13:22:24.999Z,935.19
2019-06-13T13:23:25.029Z,935.15
2019-06-13T13:24:25.095Z,935.16
2019-06-13T13:25:25.151Z,935.10
2019-06-13T13:26:25.219Z,935.14
2019-06-13T13:27:25.266Z,935.15
2019-06-13T13:28:25.317Z,935.12
2019-06-13T13:29:25.380Z,935.10
2019-06-13T13:30:25.424Z,935.08
2019-06-13T13:31:25.488Z,935.09
2019-06-13T13:32:29.973Z,935.12
2019-06-13T13:33:25.581Z,935.07
2019-06-13T13:34:25.729Z,935.09
2019-06-13T13:35:25.700Z,935.07
2019-06-13T13:36:25.801Z,935.10
2019-06-13T13:37:25.819Z,935.08
2019-06-13T13:38:25.901Z,935.06
2019-06-13T13:39:25.916Z,935.05
2019-06-13T13:40:29.983Z,935.06
2019-06-13T13:41:26.019Z,935.06
2019-06-13T13:42:26.062Z,935.04
2019-06-13T13:43:26.149Z,935.00
2019-06-13T13:44:26.208Z,935.01
2019-06-13T13:45:30.018Z,934.94
2019-06-13T13:46:28.859Z,934.95
2019-06-13T13:47:26.347Z,934.97
2019-06-13T13:48:26.420Z,934.95
2019-06-13T13:49:26.456Z,934.94
2019-06-13T13:50:26.528Z,934.96
2019-06-13T13:51:26.584Z,934.92
2019-06-13T13:52:29.656Z,934.93
2019-06-13T13:53:31.006Z,934.94
2019-06-13T13:54:30.451Z,934.91
2019-06-13T13:55:29.222Z,934.91
2019-06-13T13:56:29.064Z,934.91
2019-06-13T13:57:26.936Z,934.91
2019-06-13T13:58:26.944Z,934.91
2019-06-13T13:59:27.024Z,934.90
2019-06-13T14:00:31.077Z,934.88
2019-06-13T14:01:29.796Z,934.88
2019-06-13T14:02:27.188Z,934.85
2019-06-13T14:03:30.144Z,934.86
2019-06-13T14:04:27.278Z,934.84
2019-06-13T14:05:27.410Z,934.83
2019-06-13T14:06:27.416Z,934.83
2019-06-13T14:07:29.867Z,934.85
2019-06-13T14:08:29.613Z,934.86
2019-06-13T14:09:29.649Z,934.81
2019-06-13T14:10:29.955Z,934.78
2019-06-13T14:11:27.665Z,934.76
2019-06-13T14:12:30.156Z,934.76
2019-06-13T14:13:29.438Z,934.77
2019-06-13T14:14:29.554Z,934.73
2019-06-13T14:15:37.142Z,934.71
2019-06-13T14:16:30.124Z,934.65
2019-06-13T14:17:31.361Z,934.68
2019-06-13T14:18:36.410Z,934.62
2019-06-13T14:19:31.744Z,934.61
2019-06-13T14:20:29.944Z,934.60
2019-06-13T14:21:29.567Z,934.56
2019-06-13T14:22:29.888Z,934.51
2019-06-13T14:23:35.841Z,934.53
2019-06-13T14:24:30.129Z,934.51
2019-06-13T14:25:32.933Z,934.51
2019-06-13T14:26:29.791Z,934.43
2019-06-13T14:27:29.416Z,934.43
2019-06-13T14:28:30.464Z,934.46
2019-06-13T14:29:29.512Z,934.40
2019-06-13T14:30:36.522Z,934.39
2019-06-13T14:31:29.248Z,934.41
2019-06-13T14:32:30.010Z,934.40
2019-06-13T14:33:30.207Z,934.40
2019-06-13T14:34:30.212Z,934.41
2019-06-13T14:35:29.474Z,934.39
2019-06-13T14:36:29.977Z,934.37
2019-06-13T14:37:29.907Z,934.36
2019-06-13T14:38:30.235Z,934.37
2019-06-13T14:39:30.066Z,934.39
2019-06-13T14:40:29.827Z,934.39
2019-06-13T14:41:29.865Z,934.37
2019-06-13T14:42:30.448Z,934.38
2019-06-13T14:43:29.751Z,934.39
2019-06-13T14:44:30.115Z,934.40
2019-06-13T14:45:44.395Z,934.36
2019-06-13T14:46:29.647Z,934.37
2019-06-13T14:47:29.696Z,934.35
2019-06-13T14:48:37.498Z,934.32
2019-06-13T14:49:29.784Z,934.29
2019-06-13T14:50:29.849Z,934.34
2019-06-13T14:51:29.901Z,934.34
2019-06-13T14:52:29.975Z,934.31
2019-06-13T14:53:30.020Z,934.32
2019-06-13T14:54:31.338Z,934.33
2019-06-13T14:55:31.470Z,934.29
2019-06-13T14:56:30.193Z,934.26
2019-06-13T14:57:30.249Z,934.32
2019-06-13T14:58:30.306Z,934.26
2019-06-13T14:59:30.359Z,934.27
2019-06-13T15:00:30.570Z,934.29
2019-06-13T15:01:30.474Z,934.24
2019-06-13T15:02:30.660Z,934.23
2019-06-13T15:03:30.581Z,934.20
2019-06-13T15:04:30.665Z,934.21
2019-06-13T15:05:30.737Z,934.21
2019-06-13T15:06:30.751Z,934.19
2019-06-13T15:07:30.815Z,934.14
2019-06-13T15:08:31.679Z,934.16
2019-06-13T15:09:30.936Z,934.16
2019-06-13T15:10:30.988Z,934.15
2019-06-13T15:11:31.054Z,934.08
2019-06-13T15:12:31.106Z,934.06
2019-06-13T15:13:31.167Z,934.06
2019-06-13T15:14:31.294Z,934.02
2019-06-13T15:15:31.275Z,934.02
2019-06-13T15:16:31.343Z,933.97
2019-06-13T15:17:31.391Z,933.96
2019-06-13T15:18:31.439Z,933.96
2019-06-13T15:19:31.510Z,933.93
2019-06-13T15:20:31.539Z,933.95
2019-06-13T15:21:31.619Z,933.94
2019-06-13T15:22:31.661Z,933.91
2019-06-13T15:23:36.003Z,933.88
2019-06-13T15:24:31.772Z,933.87
2019-06-13T15:25:31.846Z,933.83
2019-06-13T15:26:31.935Z,933.78
2019-06-13T15:27:31.947Z,933.74
2019-06-13T15:28:31.989Z,933.75
2019-06-13T15:29:32.268Z,933.67
2019-06-13T15:30:32.111Z,933.68
2019-06-13T15:31:32.182Z,933.71
2019-06-13T15:32:32.212Z,933.67
2019-06-13T15:33:32.273Z,933.67
2019-06-13T15:34:32.335Z,933.62
2019-06-13T15:35:32.395Z,933.62
2019-06-13T15:36:32.443Z,933.59
2019-06-13T15:37:32.509Z,933.58
2019-06-13T15:38:32.559Z,933.55
2019-06-13T15:39:32.625Z,933.52
2019-06-13T15:40:32.669Z,933.57
2019-06-13T15:41:32.796Z,933.50
2019-06-13T15:42:32.829Z,933.49
2019-06-13T15:43:32.838Z,933.46
2019-06-13T15:44:32.901Z,933.46
2019-06-13T15:45:32.942Z,933.41
2019-06-13T15:46:39.039Z,933.42
2019-06-13T15:47:33.086Z,933.38
2019-06-13T15:48:33.150Z,933.33
2019-06-13T15:49:33.178Z,933.32
2019-06-13T15:50:33.227Z,933.32
2019-06-13T15:51:33.977Z,933.29
2019-06-13T15:52:33.368Z,933.26
2019-06-13T15:53:33.388Z,933.27
2019-06-13T15:54:33.445Z,933.27
2019-06-13T15:55:33.508Z,933.23
2019-06-13T15:56:33.548Z,933.31
2019-06-13T15:57:33.707Z,933.22
2019-06-13T15:58:33.672Z,933.18
2019-06-13T15:59:33.720Z,933.18
2019-06-13T16:00:33.760Z,933.19
2019-06-13T16:01:33.847Z,933.18
2019-06-13T16:02:33.916Z,933.13
2019-06-13T16:03:33.925Z,933.11
2019-06-13T16:04:33.981Z,933.08
2019-06-13T16:05:34.034Z,933.07
2019-06-13T16:06:34.086Z,933.01
2019-06-13T16:07:34.113Z,933.01
2019-06-13T16:08:34.199Z,932.99
2019-06-13T16:09:35.076Z,933.00
2019-06-13T16:10:34.289Z,933.01
2019-06-13T16:11:34.323Z,932.97
2019-06-13T16:12:34.376Z,932.94
2019-06-13T16:13:34.443Z,932.95
2019-06-13T16:14:34.513Z,932.91
2019-06-13T16:15:34.552Z,932.90
2019-06-13T16:16:49.230Z,932.88
2019-06-13T16:17:34.646Z,932.82
2019-06-13T16:18:34.718Z,932.80
2019-06-13T16:19:34.761Z,932.78
2019-06-13T16:20:34.800Z,932.79
2019-06-13T16:21:34.861Z,932.79
2019-06-13T16:22:34.905Z,932.76
2019-06-13T16:23:34.976Z,932.76
2019-06-13T16:24:35.003Z,932.75
2019-06-13T16:25:35.051Z,932.73
2019-06-13T16:26:35.119Z,932.72
2019-06-13T16:27:35.169Z,932.64
2019-06-13T16:28:35.224Z,932.69
2019-06-13T16:29:35.275Z,932.72
2019-06-13T16:30:35.312Z,932.66
2019-06-13T16:31:35.501Z,932.66
2019-06-13T16:32:35.415Z,932.65
2019-06-13T16:33:35.476Z,932.67
2019-06-13T16:34:35.512Z,932.67
2019-06-13T16:35:35.572Z,932.71
2019-06-13T16:36:35.632Z,932.70
2019-06-13T16:37:35.666Z,932.67
2019-06-13T16:38:35.770Z,932.65
2019-06-13T16:39:35.779Z,932.58
2019-06-13T16:40:35.828Z,932.55
2019-06-13T16:41:35.885Z,932.51
2019-06-13T16:42:35.937Z,932.50
2019-06-13T16:43:35.988Z,932.44
2019-06-13T16:44:36.038Z,932.41
2019-06-13T16:45:36.078Z,932.38
2019-06-13T16:46:36.112Z,932.43
2019-06-13T16:47:36.191Z,932.41
2019-06-13T16:48:36.253Z,932.40
2019-06-13T16:49:36.291Z,932.37
2019-06-13T16:50:36.348Z,932.40
2019-06-13T16:51:39.446Z,932.38
2019-06-13T16:52:36.444Z,932.38
2019-06-13T16:53:36.507Z,932.34
2019-06-13T16:54:38.754Z,932.34
2019-06-13T16:55:36.572Z,932.33
2019-06-13T16:56:36.644Z,932.26
2019-06-13T16:57:36.704Z,932.27
2019-06-13T16:58:36.740Z,932.25
2019-06-13T16:59:36.810Z,932.30
2019-06-13T17:00:39.821Z,932.21
2019-06-13T17:01:36.893Z,932.25
2019-06-13T17:02:40.459Z,932.21
2019-06-13T17:03:37.007Z,932.22
2019-06-13T17:04:39.613Z,932.23
2019-06-13T17:05:39.628Z,932.16
2019-06-13T17:06:39.552Z,932.17
2019-06-13T17:07:39.387Z,932.11
2019-06-13T17:08:39.601Z,932.16
2019-06-13T17:09:39.802Z,932.08
2019-06-13T17:10:39.947Z,932.11
2019-06-13T17:11:39.633Z,932.09
2019-06-13T17:12:39.041Z,932.06
2019-06-13T17:13:39.623Z,932.04
2019-06-13T17:14:37.576Z,932.02
2019-06-13T17:15:40.595Z,931.99
2019-06-13T17:16:37.651Z,931.97
2019-06-13T17:17:39.116Z,931.99
2019-06-13T17:18:40.240Z,931.98
2019-06-13T17:19:41.373Z,931.94